Time;durP1;ratioP1;P1;durP2;ratioP2;P2;SDS_P1;SDS_P2;PMS_P1;PMS_P2;Temp;Humidity;BMP_temperature;BMP_pressure;BME280_temperature;BME280_humidity;BME280_pressure;Samples;Min_cycle;Max_cycle;Signal;HPM_P1;HPM_P2
2022/01/04 00:00:47;;;;;;;17.80;7.53;;;;;;;;;;5082690;28;20071;-73
2022/01/04 00:03:13;;;;;;;17.00;7.28;;;;;;;;;;5078759;28;20043;-72
2022/01/04 00:05:39;;;;;;;21.13;8.38;;;;;;;;;;5082119;28;20040;-72
2022/01/04 00:08:09;;;;;;;23.00;8.23;;;;;;;;;;5086539;28;20032;-72
2022/01/04 00:10:35;;;;;;;25.10;8.13;;;;;;;;;;5085132;28;20108;-72
2022/01/04 00:15:46;;;;;;;17.00;7.35;;;;;;;;;;5079388;28;20059;-72
2022/01/04 00:18:12;;;;;;;20.40;7.72;;;;;;;;;;5080717;28;20104;-72
2022/01/04 00:20:38;;;;;;;21.95;7.95;;;;;;;;;;5092543;28;20040;-72
2022/01/04 00:23:04;;;;;;;22.45;8.93;;;;;;;;;;5094754;28;20043;-72
2022/01/04 00:25:30;;;;;;;22.27;8.35;;;;;;;;;;5089656;28;20051;-72
2022/01/04 00:27:57;;;;;;;23.45;8.18;;;;;;;;;;5086532;28;20044;-72
2022/01/04 00:30:28;;;;;;;25.92;8.15;;;;;;;;;;5091236;28;20123;-72
2022/01/04 00:32:54;;;;;;;26.25;8.15;;;;;;;;;;5093430;28;20044;-72
2022/01/04 00:35:20;;;;;;;22.10;8.10;;;;;;;;;;5088693;28;20110;-73
2022/01/04 00:37:46;;;;;;;21.15;8.00;;;;;;;;;;5086149;28;20036;-72
2022/01/04 00:40:12;;;;;;;24.83;8.68;;;;;;;;;;5087651;28;20397;-72
2022/01/04 00:42:38;;;;;;;18.60;8.43;;;;;;;;;;5094225;28;20040;-72
2022/01/04 00:45:04;;;;;;;19.65;8.63;;;;;;;;;;5091542;28;21440;-72
2022/01/04 00:47:43;;;;;;;26.25;8.25;;;;;;;;;;5086564;28;20075;-73
2022/01/04 00:50:09;;;;;;;23.65;8.27;;;;;;;;;;5085265;28;20036;-72
2022/01/04 00:52:35;;;;;;;22.80;8.82;;;;;;;;;;5082147;28;20403;-72
2022/01/04 00:55:01;;;;;;;25.00;8.70;;;;;;;;;;5092480;28;20068;-72
2022/01/04 00:57:27;;;;;;;19.88;8.27;;;;;;;;;;5086378;28;20100;-72
2022/01/04 00:59:53;;;;;;;15.50;8.23;;;;;;;;;;5075469;28;20036;-72
2022/01/04 01:02:19;;;;;;;14.65;8.30;;;;;;;;;;5088019;28;20043;-72
2022/01/04 01:04:45;;;;;;;18.50;8.75;;;;;;;;;;5087435;28;20044;-72
2022/01/04 01:07:11;;;;;;;20.20;8.48;;;;;;;;;;5085740;28;20047;-72
2022/01/04 01:09:47;;;;;;;21.95;8.40;;;;;;;;;;5076630;28;20045;-73
2022/01/04 01:12:13;;;;;;;19.23;8.90;;;;;;;;;;5089129;28;20527;-72
2022/01/04 01:14:39;;;;;;;20.42;8.57;;;;;;;;;;5092547;28;20044;-72
2022/01/04 01:17:05;;;;;;;30.25;9.77;;;;;;;;;;5083768;28;20523;-72
2022/01/04 01:19:31;;;;;;;19.75;8.07;;;;;;;;;;5077209;28;20098;-73
2022/01/04 01:21:57;;;;;;;23.45;9.40;;;;;;;;;;5086108;28;20040;-72
2022/01/04 01:24:23;;;;;;;19.17;8.98;;;;;;;;;;5075638;28;20086;-72
2022/01/04 01:26:49;;;;;;;18.88;8.82;;;;;;;;;;5088873;28;20051;-72
2022/01/04 01:29:15;;;;;;;23.73;8.98;;;;;;;;;;5087537;28;20119;-72
2022/01/04 01:31:40;;;;;;;21.75;8.45;;;;;;;;;;5093125;28;20051;-72
2022/01/04 01:34:06;;;;;;;24.70;9.00;;;;;;;;;;5093437;28;20062;-72
2022/01/04 01:36:32;;;;;;;24.80;8.63;;;;;;;;;;5085056;28;20032;-72
2022/01/04 01:38:58;;;;;;;24.35;9.50;;;;;;;;;;5084997;28;20043;-72
2022/01/04 01:41:24;;;;;;;22.50;8.52;;;;;;;;;;5092606;28;20032;-73
2022/01/04 01:43:50;;;;;;;21.73;9.25;;;;;;;;;;5076175;28;20047;-72
2022/01/04 01:46:16;;;;;;;19.65;7.65;;;;;;;;;;5080338;28;20066;-72
2022/01/04 01:48:42;;;;;;;16.52;8.68;;;;;;;;;;5088878;28;20036;-72
2022/01/04 01:51:08;;;;;;;22.92;8.57;;;;;;;;;;5077728;28;20043;-72
2022/01/04 01:53:34;;;;;;;22.38;8.02;;;;;;;;;;5092963;28;20143;-73
2022/01/04 01:56:00;;;;;;;15.57;7.82;;;;;;;;;;5077287;28;20123;-72
2022/01/04 01:58:26;;;;;;;16.70;8.27;;;;;;;;;;5081316;28;20399;-72
2022/01/04 02:00:52;;;;;;;19.85;8.52;;;;;;;;;;5075583;28;20040;-72
2022/01/04 02:03:18;;;;;;;19.70;8.10;;;;;;;;;;5092088;28;20032;-72
2022/01/04 02:05:44;;;;;;;29.02;8.55;;;;;;;;;;5087273;28;20135;-72
2022/01/04 02:08:10;;;;;;;22.02;8.68;;;;;;;;;;5084721;28;20036;-72
2022/01/04 02:10:36;;;;;;;23.33;9.07;;;;;;;;;;5073645;28;20080;-72
2022/01/04 02:13:02;;;;;;;21.50;9.60;;;;;;;;;;5091887;28;20079;-72
2022/01/04 02:15:30;;;;;;;16.48;8.27;;;;;;;;;;5081433;28;20037;-72
2022/01/04 02:17:56;;;;;;;25.92;10.80;;;;;;;;;;5080922;28;20047;-72
2022/01/04 02:20:22;;;;;;;20.33;9.52;;;;;;;;;;5078530;28;20036;-72
2022/01/04 02:22:49;;;;;;;27.20;10.57;;;;;;;;;;5074036;28;20040;-72
2022/01/04 02:25:15;;;;;;;22.30;9.82;;;;;;;;;;5081542;28;20040;-72
2022/01/04 02:27:42;;;;;;;24.25;10.38;;;;;;;;;;5082780;28;20064;-72
2022/01/04 02:30:10;;;;;;;24.77;10.00;;;;;;;;;;5074079;28;20132;-72
2022/01/04 02:32:36;;;;;;;25.77;10.32;;;;;;;;;;5082997;28;20044;-72
2022/01/04 02:35:03;;;;;;;21.20;9.95;;;;;;;;;;5082700;28;20082;-72
2022/01/04 02:37:31;;;;;;;21.85;10.43;;;;;;;;;;5078279;28;20033;-72
2022/01/04 02:39:57;;;;;;;23.63;10.32;;;;;;;;;;5081616;28;20117;-72
2022/01/04 02:42:23;;;;;;;20.50;10.38;;;;;;;;;;5086129;28;20091;-72
2022/01/04 02:44:49;;;;;;;21.80;10.57;;;;;;;;;;5089997;28;20162;-72
2022/01/04 02:47:16;;;;;;;22.20;9.90;;;;;;;;;;5081894;28;20068;-72
2022/01/04 02:49:42;;;;;;;25.60;11.65;;;;;;;;;;5089529;28;20040;-72
2022/01/04 02:52:08;;;;;;;24.13;10.48;;;;;;;;;;5091643;28;20040;-72
2022/01/04 02:54:34;;;;;;;25.98;11.65;;;;;;;;;;5085857;28;20036;-72
2022/01/04 02:57:00;;;;;;;22.17;10.57;;;;;;;;;;5079008;28;20504;-72
2022/01/04 02:59:27;;;;;;;25.83;10.75;;;;;;;;;;5074333;28;20153;-72
2022/01/04 03:01:53;;;;;;;27.65;11.55;;;;;;;;;;5078708;28;20043;-72
2022/01/04 03:04:20;;;;;;;25.48;11.65;;;;;;;;;;5085915;28;20382;-72
2022/01/04 03:06:46;;;;;;;30.05;12.57;;;;;;;;;;5083411;28;20044;-72
2022/01/04 03:09:12;;;;;;;27.13;12.48;;;;;;;;;;5077907;28;20040;-72
2022/01/04 03:11:38;;;;;;;34.13;13.15;;;;;;;;;;5081611;28;20086;-72
2022/01/04 03:14:04;;;;;;;25.20;11.50;;;;;;;;;;5091935;28;20047;-72
2022/01/04 03:16:30;;;;;;;30.98;12.75;;;;;;;;;;5083859;28;20406;-72
2022/01/04 03:21:25;;;;;;;31.35;12.55;;;;;;;;;;5091744;28;20077;-72
2022/01/04 03:23:51;;;;;;;27.45;12.05;;;;;;;;;;5075806;28;20585;-72
2022/01/04 03:26:17;;;;;;;29.65;13.27;;;;;;;;;;5077505;28;20405;-72
2022/01/04 03:28:43;;;;;;;29.85;13.10;;;;;;;;;;5084530;28;20086;-72
2022/01/04 03:31:09;;;;;;;30.38;14.05;;;;;;;;;;5075513;28;20115;-72
2022/01/04 03:33:36;;;;;;;25.02;13.32;;;;;;;;;;5075634;28;20047;-72
2022/01/04 03:36:03;;;;;;;30.38;14.65;;;;;;;;;;5080473;28;20032;-71
2022/01/04 03:38:29;;;;;;;35.55;13.75;;;;;;;;;;5085863;28;20036;-72
2022/01/04 03:40:55;;;;;;;31.15;13.50;;;;;;;;;;5091134;28;20039;-72
2022/01/04 03:43:22;;;;;;;31.05;14.70;;;;;;;;;;5095310;28;20035;-71
2022/01/04 03:45:48;;;;;;;39.40;15.00;;;;;;;;;;5082687;28;20517;-72
2022/01/04 03:48:14;;;;;;;33.55;15.18;;;;;;;;;;5086207;28;20032;-72
2022/01/04 03:50:40;;;;;;;30.77;14.25;;;;;;;;;;5095431;28;20055;-72
2022/01/04 03:53:06;;;;;;;32.08;14.43;;;;;;;;;;5094221;28;20489;-72
2022/01/04 03:55:32;;;;;;;34.63;15.50;;;;;;;;;;5078435;28;20419;-72
2022/01/04 03:57:58;;;;;;;29.85;14.98;;;;;;;;;;5091021;28;20036;-72
2022/01/04 04:00:24;;;;;;;27.27;14.35;;;;;;;;;;5089864;28;20066;-72
2022/01/04 04:02:50;;;;;;;33.92;15.63;;;;;;;;;;5075120;28;20047;-73
2022/01/04 04:05:16;;;;;;;32.33;14.93;;;;;;;;;;5077388;28;20041;-72
2022/01/04 04:07:42;;;;;;;33.85;15.30;;;;;;;;;;5090407;28;20048;-72
2022/01/04 04:10:09;;;;;;;34.25;15.77;;;;;;;;;;5075869;28;20123;-72
2022/01/04 04:12:35;;;;;;;36.72;15.93;;;;;;;;;;5080590;28;20131;-72
2022/01/04 04:15:04;;;;;;;32.72;16.60;;;;;;;;;;5090502;28;20527;-72
2022/01/04 04:17:32;;;;;;;35.85;16.58;;;;;;;;;;5086829;28;20169;-72
2022/01/04 04:19:58;;;;;;;35.67;16.20;;;;;;;;;;5092831;28;20040;-72
2022/01/04 04:22:25;;;;;;;34.20;16.45;;;;;;;;;;5074939;28;20047;-73
2022/01/04 04:24:50;;;;;;;33.80;16.73;;;;;;;;;;5091307;28;20054;-72
2022/01/04 04:27:16;;;;;;;36.35;16.73;;;;;;;;;;5088484;28;20049;-72
2022/01/04 04:29:42;;;;;;;33.75;15.73;;;;;;;;;;5075753;28;20178;-72
2022/01/04 04:32:09;;;;;;;37.30;16.67;;;;;;;;;;5093455;28;20036;-72
2022/01/04 04:34:35;;;;;;;40.00;16.13;;;;;;;;;;5085282;28;20076;-71
2022/01/04 04:37:01;;;;;;;38.50;17.65;;;;;;;;;;5081831;28;20059;-71
2022/01/04 04:39:27;;;;;;;39.92;16.85;;;;;;;;;;5088898;28;20036;-71
2022/01/04 04:41:53;;;;;;;33.75;17.33;;;;;;;;;;5094008;28;20036;-71
2022/01/04 04:44:19;;;;;;;36.05;16.35;;;;;;;;;;5091100;28;20041;-71
2022/01/04 04:46:45;;;;;;;36.53;16.73;;;;;;;;;;5091945;28;20044;-71
2022/01/04 04:49:12;;;;;;;37.35;16.48;;;;;;;;;;5088018;28;20048;-71
2022/01/04 04:51:38;;;;;;;36.42;16.95;;;;;;;;;;5094117;28;20097;-71
2022/01/04 04:54:04;;;;;;;34.30;16.77;;;;;;;;;;5092003;28;20044;-71
2022/01/04 04:56:30;;;;;;;33.20;15.77;;;;;;;;;;5104361;22;20116;-62
2022/01/04 04:58:57;;;;;;;33.40;15.77;;;;;;;;;;5083721;28;20032;-62
2022/01/04 05:01:23;;;;;;;33.85;15.63;;;;;;;;;;5102863;28;20043;-62
2022/01/04 05:03:51;;;;;;;38.55;16.30;;;;;;;;;;5103710;28;20459;-62
2022/01/04 05:06:17;;;;;;;35.38;16.27;;;;;;;;;;5099039;28;20039;-62
2022/01/04 05:08:43;;;;;;;33.60;15.93;;;;;;;;;;5112527;28;20062;-62
2022/01/04 05:11:09;;;;;;;34.08;16.48;;;;;;;;;;5113569;28;20063;-62
2022/01/04 05:13:35;;;;;;;29.58;15.27;;;;;;;;;;5113648;28;20039;-62
2022/01/04 05:16:01;;;;;;;33.45;15.00;;;;;;;;;;5110054;28;20046;-62
2022/01/04 05:18:27;;;;;;;34.75;15.32;;;;;;;;;;5110240;28;20031;-62
2022/01/04 05:20:53;;;;;;;31.80;14.82;;;;;;;;;;5113991;28;20036;-63
2022/01/04 05:23:19;;;;;;;33.10;15.38;;;;;;;;;;5113063;28;20092;-63
2022/01/04 05:25:45;;;;;;;28.23;15.00;;;;;;;;;;5110773;28;20132;-62
2022/01/04 05:28:11;;;;;;;30.75;14.73;;;;;;;;;;5109105;28;20381;-63
2022/01/04 05:30:37;;;;;;;30.58;15.43;;;;;;;;;;5112552;28;20096;-63
2022/01/04 05:33:03;;;;;;;29.77;14.93;;;;;;;;;;5113877;28;20050;-62
2022/01/04 05:35:29;;;;;;;31.15;14.07;;;;;;;;;;5109858;28;20031;-63
2022/01/04 05:37:55;;;;;;;33.17;15.05;;;;;;;;;;5105922;28;20059;-62
2022/01/04 05:40:21;;;;;;;28.85;16.25;;;;;;;;;;5108105;28;20039;-63
2022/01/04 05:42:47;;;;;;;28.95;15.65;;;;;;;;;;5112568;28;20036;-62
2022/01/04 05:45:12;;;;;;;33.63;16.17;;;;;;;;;;5111001;28;20043;-62
2022/01/04 05:47:38;;;;;;;32.88;13.98;;;;;;;;;;5107539;28;20127;-62
2022/01/04 05:50:08;;;;;;;34.25;15.77;;;;;;;;;;5112785;28;20039;-62
2022/01/04 05:52:34;;;;;;;33.30;15.60;;;;;;;;;;5113200;28;20040;-62
2022/01/04 05:55:00;;;;;;;33.92;15.73;;;;;;;;;;5111846;28;20555;-62
2022/01/04 05:57:26;;;;;;;29.98;16.33;;;;;;;;;;5107077;28;20024;-63
2022/01/04 05:59:52;;;;;;;35.30;15.70;;;;;;;;;;5113140;28;20489;-62
2022/01/04 06:02:18;;;;;;;30.75;16.00;;;;;;;;;;5112267;28;20662;-62
2022/01/04 06:04:44;;;;;;;35.28;15.75;;;;;;;;;;5093695;28;20043;-62
2022/01/04 06:07:10;;;;;;;35.35;15.93;;;;;;;;;;5088938;28;20137;-62
2022/01/04 06:09:45;;;;;;;35.72;16.67;;;;;;;;;;5112225;28;20051;-62
2022/01/04 06:14:50;;;;;;;29.92;14.82;;;;;;;;;;5111032;28;20043;-62
2022/01/04 06:17:16;;;;;;;26.80;15.43;;;;;;;;;;5101731;28;20035;-62
2022/01/04 06:19:42;;;;;;;33.95;16.05;;;;;;;;;;5112302;28;20040;-62
2022/01/04 06:22:08;;;;;;;28.40;15.88;;;;;;;;;;5112399;28;20032;-62
2022/01/04 06:24:36;;;;;;;31.52;16.17;;;;;;;;;;5094018;28;20051;-62
2022/01/04 06:27:04;;;;;;;30.05;15.43;;;;;;;;;;5104985;28;20039;-62
2022/01/04 06:29:30;;;;;;;27.55;14.95;;;;;;;;;;5112536;28;20079;-62
2022/01/04 06:31:56;;;;;;;36.10;15.88;;;;;;;;;;5112507;28;20039;-62
2022/01/04 06:34:22;;;;;;;34.88;15.85;;;;;;;;;;5112517;28;20046;-62
2022/01/04 06:36:48;;;;;;;33.60;15.80;;;;;;;;;;5085994;28;20075;-63
2022/01/04 06:39:14;;;;;;;33.60;16.00;;;;;;;;;;5111878;28;20506;-62
2022/01/04 06:41:40;;;;;;;31.58;15.63;;;;;;;;;;5112186;28;20119;-62
2022/01/04 06:44:07;;;;;;;39.22;16.80;;;;;;;;;;5112480;28;20073;-62
2022/01/04 06:46:33;;;;;;;32.55;15.93;;;;;;;;;;5102200;28;20024;-62
2022/01/04 06:48:59;;;;;;;32.17;16.73;;;;;;;;;;5112297;28;20125;-63
2022/01/04 06:51:25;;;;;;;34.80;15.23;;;;;;;;;;5093676;28;20071;-62
2022/01/04 06:53:51;;;;;;;28.98;12.98;;;;;;;;;;5111387;28;20070;-62
2022/01/04 06:56:17;;;;;;;33.38;15.93;;;;;;;;;;5105142;28;20118;-63
2022/01/04 06:58:43;;;;;;;31.92;17.05;;;;;;;;;;5109992;28;20042;-63
2022/01/04 07:01:09;;;;;;;34.80;17.40;;;;;;;;;;5111414;28;20104;-63
2022/01/04 07:03:35;;;;;;;33.28;16.33;;;;;;;;;;5094023;28;20065;-63
2022/01/04 07:06:01;;;;;;;37.42;16.77;;;;;;;;;;5109320;28;20397;-63
2022/01/04 07:08:27;;;;;;;37.67;17.60;;;;;;;;;;5110072;28;20038;-63
2022/01/04 07:10:53;;;;;;;37.08;18.27;;;;;;;;;;5110516;28;20161;-63
2022/01/04 07:13:19;;;;;;;35.88;17.92;;;;;;;;;;5111560;28;20028;-63
2022/01/04 07:15:46;;;;;;;40.47;17.13;;;;;;;;;;5106318;28;20058;-63
2022/01/04 07:18:12;;;;;;;37.95;17.63;;;;;;;;;;5100662;28;20047;-62
2022/01/04 07:20:38;;;;;;;30.52;16.83;;;;;;;;;;5101268;28;20039;-63
2022/01/04 07:23:04;;;;;;;36.42;19.23;;;;;;;;;;5109952;28;20035;-63
2022/01/04 07:25:30;;;;;;;38.55;18.48;;;;;;;;;;5105131;28;20123;-63
2022/01/04 07:27:56;;;;;;;33.72;17.25;;;;;;;;;;5091854;28;20036;-63
2022/01/04 07:30:22;;;;;;;35.67;18.13;;;;;;;;;;5109329;28;20040;-63
2022/01/04 07:32:48;;;;;;;37.08;17.35;;;;;;;;;;5106192;28;20101;-63
2022/01/04 07:35:14;;;;;;;35.47;18.05;;;;;;;;;;5103886;28;20063;-63
2022/01/04 07:37:40;;;;;;;32.63;17.23;;;;;;;;;;5078512;28;20092;-63
2022/01/04 07:40:07;;;;;;;35.00;18.30;;;;;;;;;;5111343;28;20031;-63
2022/01/04 07:42:33;;;;;;;38.83;18.67;;;;;;;;;;5110515;28;20036;-64
2022/01/04 07:44:59;;;;;;;34.05;18.00;;;;;;;;;;5103920;28;20044;-63
2022/01/04 07:47:26;;;;;;;35.28;18.15;;;;;;;;;;5097767;28;20043;-63
2022/01/04 07:49:52;;;;;;;40.92;17.85;;;;;;;;;;5108788;28;20046;-63
2022/01/04 07:52:18;;;;;;;36.95;18.02;;;;;;;;;;5092775;28;20047;-63
2022/01/04 07:54:44;;;;;;;42.05;19.63;;;;;;;;;;5111551;28;20036;-63
2022/01/04 07:57:10;;;;;;;41.55;19.25;;;;;;;;;;5103651;28;20086;-63
2022/01/04 07:59:36;;;;;;;39.33;19.08;;;;;;;;;;5087478;28;20408;-64
2022/01/04 08:02:02;;;;;;;41.95;18.30;;;;;;;;;;5110635;28;20031;-63
2022/01/04 08:04:28;;;;;;;35.38;19.15;;;;;;;;;;5107974;28;20047;-64
2022/01/04 08:06:54;;;;;;;41.42;20.55;;;;;;;;;;5105606;28;20043;-64
2022/01/04 08:09:20;;;;;;;35.75;18.55;;;;;;;;;;5109333;28;20039;-64
2022/01/04 08:11:46;;;;;;;35.70;19.98;;;;;;;;;;5109009;28;20071;-64
2022/01/04 08:14:13;;;;;;;42.50;20.77;;;;;;;;;;5111550;28;20113;-64
2022/01/04 08:16:40;;;;;;;45.45;20.27;;;;;;;;;;5112512;28;20589;-64
2022/01/04 08:19:05;;;;;;;38.75;19.50;;;;;;;;;;5112399;28;20046;-64
2022/01/04 08:21:31;;;;;;;43.90;19.63;;;;;;;;;;5111783;28;20035;-64
2022/01/04 08:23:57;;;;;;;52.08;20.88;;;;;;;;;;5114154;28;20090;-64
2022/01/04 08:26:24;;;;;;;42.92;19.60;;;;;;;;;;5101051;28;20111;-64
2022/01/04 08:28:50;;;;;;;36.83;19.45;;;;;;;;;;5107463;28;20402;-64
2022/01/04 08:31:16;;;;;;;35.95;18.33;;;;;;;;;;5109790;28;20160;-64
2022/01/04 08:33:42;;;;;;;43.15;20.25;;;;;;;;;;5109139;28;20148;-64
2022/01/04 08:36:10;;;;;;;35.28;18.55;;;;;;;;;;5107490;28;20068;-64
2022/01/04 08:38:36;;;;;;;38.67;19.27;;;;;;;;;;5107752;28;20436;-64
2022/01/04 08:41:02;;;;;;;36.55;18.85;;;;;;;;;;5109769;27;20036;-64
2022/01/04 08:43:28;;;;;;;37.00;19.27;;;;;;;;;;5113888;28;20114;-64
2022/01/04 08:45:54;;;;;;;35.95;16.70;;;;;;;;;;5113355;28;20472;-64
2022/01/04 08:48:20;;;;;;;34.17;17.02;;;;;;;;;;5110142;28;20062;-64
2022/01/04 08:50:46;;;;;;;35.90;17.17;;;;;;;;;;5114879;28;20044;-64
2022/01/04 08:53:13;;;;;;;40.63;18.17;;;;;;;;;;5111591;28;20079;-64
2022/01/04 08:55:39;;;;;;;36.67;17.23;;;;;;;;;;5111432;28;20044;-64
2022/01/04 08:58:05;;;;;;;38.15;17.67;;;;;;;;;;5086682;28;20059;-64
2022/01/04 09:00:31;;;;;;;37.72;18.48;;;;;;;;;;5112862;28;20086;-64
2022/01/04 09:02:59;;;;;;;40.05;18.17;;;;;;;;;;5104972;28;20094;-64
2022/01/04 09:05:25;;;;;;;36.03;17.45;;;;;;;;;;5108578;28;20054;-64
2022/01/04 09:07:51;;;;;;;35.80;17.92;;;;;;;;;;5108458;28;20040;-64
2022/01/04 09:10:17;;;;;;;35.67;17.83;;;;;;;;;;5112786;28;20051;-64
2022/01/04 09:12:57;;;;;;;34.63;18.85;;;;;;;;;;5111412;28;20039;-65
2022/01/04 09:20:46;;;;;;;31.48;16.42;;;;;;;;;;5114034;28;20047;-64
2022/01/04 09:23:13;;;;;;;36.88;18.17;;;;;;;;;;5114063;28;20084;-64
2022/01/04 09:25:39;;;;;;;35.83;18.52;;;;;;;;;;5112171;28;20047;-64
2022/01/04 09:28:05;;;;;;;34.53;18.05;;;;;;;;;;5092276;28;20035;-64
2022/01/04 09:30:31;;;;;;;37.33;18.45;;;;;;;;;;5113693;28;20142;-64
2022/01/04 09:32:57;;;;;;;40.08;19.35;;;;;;;;;;5113922;28;20126;-64
2022/01/04 09:35:23;;;;;;;39.28;18.98;;;;;;;;;;5112979;28;20118;-64
2022/01/04 09:37:49;;;;;;;38.25;20.00;;;;;;;;;;5103134;28;20036;-64
2022/01/04 09:40:15;;;;;;;36.22;17.92;;;;;;;;;;5105512;28;20043;-65
2022/01/04 09:42:42;;;;;;;24.30;12.70;;;;;;;;;;5113506;28;20035;-65
2022/01/04 09:45:09;;;;;;;16.05;7.05;;;;;;;;;;5113193;28;20082;-64
2022/01/04 09:47:35;;;;;;;10.40;4.63;;;;;;;;;;5106978;28;20123;-65
2022/01/04 09:50:08;;;;;;;10.13;4.78;;;;;;;;;;5094909;28;20558;-64
2022/01/04 09:52:34;;;;;;;7.25;3.45;;;;;;;;;;5113256;28;20110;-65
2022/01/04 09:55:00;;;;;;;9.57;5.40;;;;;;;;;;5112775;28;20071;-65
2022/01/04 09:57:26;;;;;;;8.90;3.38;;;;;;;;;;5106734;28;20074;-65
2022/01/04 09:59:52;;;;;;;6.18;2.83;;;;;;;;;;5113201;28;20031;-65
2022/01/04 10:02:19;;;;;;;5.75;2.53;;;;;;;;;;5092817;28;20042;-64
2022/01/04 10:04:45;;;;;;;6.90;3.10;;;;;;;;;;5092358;28;20065;-65
2022/01/04 10:07:11;;;;;;;9.40;4.38;;;;;;;;;;5101418;28;20039;-64
2022/01/04 10:09:45;;;;;;;10.93;5.15;;;;;;;;;;5113361;28;20043;-65
2022/01/04 10:12:19;;;;;;;12.52;5.68;;;;;;;;;;5113041;28;20100;-64
2022/01/04 10:14:46;;;;;;;13.13;6.93;;;;;;;;;;5112637;28;20122;-64
2022/01/04 10:17:14;;;;;;;15.85;8.30;;;;;;;;;;5104861;28;20035;-64
2022/01/04 10:19:47;;;;;;;14.75;7.85;;;;;;;;;;5095378;28;20494;-64
2022/01/04 10:22:16;;;;;;;15.60;7.50;;;;;;;;;;5092888;28;20051;-64
2022/01/04 10:24:42;;;;;;;18.80;7.47;;;;;;;;;;5112769;28;20063;-64
2022/01/04 10:27:21;;;;;;;15.27;7.70;;;;;;;;;;5104101;28;20556;-65
2022/01/04 10:29:48;;;;;;;12.98;6.50;;;;;;;;;;5111036;28;20431;-65
2022/01/04 10:32:14;;;;;;;16.25;7.03;;;;;;;;;;5094186;28;20129;-64
2022/01/04 10:34:49;;;;;;;13.68;6.82;;;;;;;;;;5111939;28;20031;-64
2022/01/04 10:37:36;;;;;;;13.57;6.05;;;;;;;;;;5087088;28;20043;-65
2022/01/04 10:40:09;;;;;;;11.98;6.53;;;;;;;;;;5112324;28;20062;-64
2022/01/04 10:42:35;;;;;;;9.68;5.50;;;;;;;;;;5112447;28;20042;-64
2022/01/04 10:45:20;;;;;;;10.18;5.05;;;;;;;;;;5112003;28;20036;-65
2022/01/04 10:47:46;;;;;;;10.90;5.30;;;;;;;;;;5105854;28;20047;-64
2022/01/04 10:50:12;;;;;;;13.82;5.53;;;;;;;;;;5101813;28;20378;-64
2022/01/04 10:52:38;;;;;;;15.75;5.60;;;;;;;;;;5073943;28;20052;-64
2022/01/04 10:57:48;;;;;;;11.80;4.22;;;;;;;;;;4982034;28;20412;-73
2022/01/04 11:00:16;;;;;;;7.75;3.33;;;;;;;;;;4989448;28;20043;-72
2022/01/04 11:02:42;;;;;;;8.80;3.08;;;;;;;;;;4989759;28;20050;-72
2022/01/04 11:05:15;;;;;;;7.80;2.70;;;;;;;;;;4989291;28;20113;-71
2022/01/04 11:07:59;;;;;;;7.10;2.40;;;;;;;;;;4965355;28;20039;-72
2022/01/04 11:10:28;;;;;;;8.73;2.33;;;;;;;;;;4966928;28;20092;-72
2022/01/04 11:12:54;;;;;;;9.38;2.60;;;;;;;;;;4968334;28;20117;-70
2022/01/04 11:15:20;;;;;;;7.95;1.98;;;;;;;;;;4967877;28;20051;-71
2022/01/04 11:17:47;;;;;;;5.80;1.50;;;;;;;;;;4974874;28;20130;-71
2022/01/04 11:20:13;;;;;;;5.28;1.45;;;;;;;;;;4970671;28;20092;-71
2022/01/04 11:22:42;;;;;;;5.47;1.40;;;;;;;;;;4978315;28;20044;-71
2022/01/04 11:25:08;;;;;;;3.38;1.48;;;;;;;;;;4993388;28;20564;-71
2022/01/04 11:27:37;;;;;;;3.58;0.60;;;;;;;;;;4969014;28;20138;-71
2022/01/04 11:30:05;;;;;;;4.97;0.93;;;;;;;;;;4977287;28;20449;-71
2022/01/04 11:32:32;;;;;;;6.10;0.93;;;;;;;;;;4968720;28;20503;-71
2022/01/04 11:34:57;;;;;;;2.95;0.82;;;;;;;;;;4968400;28;20277;-71
2022/01/04 11:37:25;;;;;;;4.18;0.80;;;;;;;;;;4966066;28;20492;-71
2022/01/04 11:39:52;;;;;;;2.90;0.88;;;;;;;;;;4958586;28;20121;-71
2022/01/04 11:42:34;;;;;;;2.92;0.93;;;;;;;;;;4969125;28;20078;-71
2022/01/04 11:45:00;;;;;;;5.20;1.40;;;;;;;;;;4968378;28;20047;-72
2022/01/04 11:47:28;;;;;;;4.93;1.20;;;;;;;;;;4967292;28;20058;-71
2022/01/04 11:50:06;;;;;;;3.47;1.30;;;;;;;;;;4972813;28;20069;-71
2022/01/04 11:52:45;;;;;;;3.25;1.17;;;;;;;;;;4972450;28;20388;-71
2022/01/04 11:55:23;;;;;;;3.35;1.40;;;;;;;;;;4967970;28;20138;-71
2022/01/04 11:57:50;;;;;;;2.83;1.40;;;;;;;;;;4971004;28;20126;-72
2022/01/04 12:00:26;;;;;;;4.80;1.20;;;;;;;;;;4971483;28;20038;-71
2022/01/04 12:03:01;;;;;;;4.35;1.10;;;;;;;;;;4970889;28;20035;-71
2022/01/04 12:05:27;;;;;;;3.75;0.85;;;;;;;;;;4971650;28;20035;-72
2022/01/04 12:07:55;;;;;;;2.30;0.80;;;;;;;;;;4971651;28;21047;-71
2022/01/04 12:10:21;;;;;;;1.08;0.60;;;;;;;;;;4971686;28;20049;-71
2022/01/04 12:12:54;;;;;;;2.83;0.90;;;;;;;;;;4972898;28;20042;-71
2022/01/04 12:15:36;;;;;;;2.22;1.00;;;;;;;;;;4971515;28;20051;-71
2022/01/04 12:18:02;;;;;;;3.20;0.88;;;;;;;;;;4995695;28;20485;-71
2022/01/04 12:20:48;;;;;;;2.22;0.70;;;;;;;;;;4991303;28;20038;-71
2022/01/04 12:23:26;;;;;;;6.90;0.90;;;;;;;;;;4972436;28;20043;-71
2022/01/04 12:26:04;;;;;;;3.30;0.60;;;;;;;;;;4975908;28;20394;-71
2022/01/04 12:28:33;;;;;;;2.83;0.57;;;;;;;;;;4969449;28;20049;-71
2022/01/04 12:31:18;;;;;;;3.88;0.70;;;;;;;;;;4984315;28;20086;-71
2022/01/04 12:33:48;;;;;;;1.02;0.70;;;;;;;;;;4972534;28;20056;-71
2022/01/04 12:36:24;;;;;;;2.30;1.00;;;;;;;;;;5008274;28;20047;-71
2022/01/04 12:38:50;;;;;;;3.15;1.00;;;;;;;;;;5014363;28;20041;-71
2022/01/04 12:41:17;;;;;;;5.22;1.05;;;;;;;;;;4999878;28;20047;-71
2022/01/04 12:43:47;;;;;;;3.30;0.95;;;;;;;;;;4972120;28;20038;-71
2022/01/04 12:46:13;;;;;;;2.28;0.60;;;;;;;;;;5055636;28;20120;-71
2022/01/04 12:48:50;;;;;;;4.05;0.93;;;;;;;;;;4971654;28;20054;-71
2022/01/04 12:51:23;;;;;;;1.15;0.70;;;;;;;;;;4994795;28;20092;-71
2022/01/04 12:53:49;;;;;;;2.13;0.80;;;;;;;;;;4991305;28;20500;-71
2022/01/04 12:56:15;;;;;;;1.65;0.40;;;;;;;;;;4981091;28;20100;-71
2022/01/04 12:58:41;;;;;;;5.55;0.77;;;;;;;;;;4985774;28;20045;-71
2022/01/04 13:01:07;;;;;;;4.20;1.45;;;;;;;;;;4979941;28;20063;-70
2022/01/04 13:03:33;;;;;;;5.50;0.70;;;;;;;;;;5012622;28;20348;-71
2022/01/04 13:06:00;;;;;;;6.20;0.70;;;;;;;;;;4985866;28;20090;-71
2022/01/04 13:08:26;;;;;;;5.57;0.73;;;;;;;;;;4969890;28;20082;-71
2022/01/04 13:11:09;;;;;;;5.10;1.10;;;;;;;;;;4970100;28;20054;-70
2022/01/04 13:13:35;;;;;;;2.35;0.73;;;;;;;;;;4971369;28;20069;-71
2022/01/04 13:16:20;;;;;;;3.15;1.10;;;;;;;;;;4969618;28;20096;-71
2022/01/04 13:18:46;;;;;;;1.92;0.90;;;;;;;;;;4970691;28;20442;-71
2022/01/04 13:21:12;;;;;;;6.30;0.70;;;;;;;;;;4970442;28;20042;-71
2022/01/04 13:23:39;;;;;;;2.22;0.70;;;;;;;;;;4967759;28;20587;-71
2022/01/04 13:26:04;;;;;;;4.97;0.80;;;;;;;;;;4972096;28;20589;-70
2022/01/04 13:28:31;;;;;;;4.60;0.88;;;;;;;;;;4967431;28;20034;-71
2022/01/04 13:30:56;;;;;;;4.50;0.55;;;;;;;;;;4964628;28;20035;-71
2022/01/04 13:33:26;;;;;;;4.22;0.80;;;;;;;;;;4967125;28;20046;-70
2022/01/04 13:35:53;;;;;;;5.15;0.70;;;;;;;;;;4970433;28;20043;-71
2022/01/04 13:38:21;;;;;;;4.15;0.60;;;;;;;;;;4967565;28;20039;-71
2022/01/04 13:40:48;;;;;;;6.43;1.15;;;;;;;;;;4978182;28;20046;-71
2022/01/04 13:43:16;;;;;;;5.90;0.73;;;;;;;;;;5002112;28;20481;-71
2022/01/04 13:45:44;;;;;;;8.43;0.93;;;;;;;;;;5004205;28;20045;-71
2022/01/04 13:48:11;;;;;;;8.77;1.10;;;;;;;;;;4970472;28;20039;-71
2022/01/04 13:50:41;;;;;;;2.70;0.80;;;;;;;;;;4970997;28;20043;-71
2022/01/04 13:53:13;;;;;;;3.83;0.80;;;;;;;;;;4970936;28;20043;-70
2022/01/04 13:55:48;;;;;;;5.93;0.80;;;;;;;;;;4967776;28;20051;-73
2022/01/04 13:58:33;;;;;;;5.13;1.00;;;;;;;;;;4966072;28;20038;-72
2022/01/04 14:01:10;;;;;;;4.57;0.80;;;;;;;;;;4967888;28;20737;-71
2022/01/04 14:03:36;;;;;;;2.30;0.73;;;;;;;;;;4987180;28;20499;-71
2022/01/04 14:06:02;;;;;;;3.85;0.75;;;;;;;;;;4969805;28;20046;-70
2022/01/04 14:08:47;;;;;;;3.75;0.90;;;;;;;;;;4972647;28;20043;-71
2022/01/04 14:11:13;;;;;;;3.78;0.90;;;;;;;;;;4975500;28;20040;-73
2022/01/04 14:13:40;;;;;;;4.68;1.05;;;;;;;;;;5065374;28;20040;-70
2022/01/04 14:16:06;;;;;;;2.60;0.85;;;;;;;;;;4987377;28;20043;-71
2022/01/04 14:18:32;;;;;;;5.20;1.10;;;;;;;;;;4993057;28;20051;-70
2022/01/04 14:20:58;;;;;;;3.08;0.80;;;;;;;;;;4971730;28;20046;-72
2022/01/04 14:23:33;;;;;;;5.57;1.15;;;;;;;;;;4960775;28;20035;-71
2022/01/04 14:26:06;;;;;;;6.07;1.00;;;;;;;;;;4967601;28;20484;-72
2022/01/04 14:28:32;;;;;;;5.13;1.25;;;;;;;;;;4967590;28;20043;-72
2022/01/04 14:30:58;;;;;;;4.32;0.80;;;;;;;;;;4968521;28;20046;-72
2022/01/04 14:33:24;;;;;;;6.55;1.05;;;;;;;;;;4963162;28;20034;-72
2022/01/04 14:35:50;;;;;;;6.65;1.10;;;;;;;;;;4968166;28;20338;-72
2022/01/04 14:38:16;;;;;;;4.15;1.00;;;;;;;;;;4970074;28;20483;-72
2022/01/04 14:40:45;;;;;;;3.75;1.00;;;;;;;;;;4974916;28;20053;-72
2022/01/04 14:43:11;;;;;;;5.13;1.23;;;;;;;;;;4983291;28;20093;-71